メインページ
METAR-TAF:

METAR-TAF

空港 :

ジェネラル・エドワード・ローレンス・ローガン国際空港

ボストン, マサチューセッツ州, アメリカ合衆国

緯度: 42-21-38N, 経度: 071-00-38W, 海抜: 6m

現時点の気象観測

当レポートは32分前の18:54(UTC)に作成
の風 6kt
気温 22°C
湿度 88%
気圧 1006 hPa
視程: 6.4km
高度700ftの千切れ雲あり
高度1300ftの曇り
雨, 靄

METAR: KBOS 181854Z 36006KT 4SM RA BR BKN007 OVC013 22/20 A2972 RMK AO2 LTG DSNT SE SLP065 VIS SE-S 2 P0002 T02170200

時間: 15:26 (19:26 UTC)

予報

当レポートは1時間48分前の17:38(UTC)に作成
予報は18日の 18時(UTC)から 19日の 24時(UTC)まで有効
北/北東の風 4kt
視程: 10km
高度800ftの千切れ雲あり
高度3500ftの千切れ雲あり, 積乱雲.
弱いにわか雨, 近辺で激しい雷雨
18日の 1830時(UTC)から
の風 4kt
視程: 9.7km
高度800ftの千切れ雲あり
高度1500ftの曇り
弱いにわか雨
18日の 2100時(UTC)から
北/北西の風 4kt
視程: 8.0km
高度1500ftの雲は散在している
高度5000ftの千切れ雲あり
19日の 0700時(UTC)から
の風 6kt
視程: 1.2km
高度2500ftの千切れ雲あり
19日の 1200時(UTC)から
北/北東の風 9kt
視程: 4.8km
高度1000ftの曇り
19日の 1600時(UTC)から
北/北東の風 9kt
視程: 10km
高度2500ftの千切れ雲あり
19日の 1900時(UTC)から
北東の風 9kt
視程: 10km
高度3500ftの千切れ雲あり
19日の 2200時(UTC)から
北東の風 8kt
視程: 10km
高度25000ftの雲は散在している

TAF: KBOS 181738Z 1818/1924 02004KT P6SM -SHRA VCTS BKN008 BKN035CB FM181830 36004KT 6SM -SHRA BKN008 OVC015 FM182100 33004KT 5SM BR SCT015 BKN050 FM190700 01006KT 3/4SM BR BKN025 FM191200 02009KT 3SM BR OVC010 FM191600 03009KT P6SM BKN025 FM191900 04009KT P6SM BKN035 FM192200 04008KT P6SM SCT250

4,000以上の空港の気象観測と天気予報(METAR報とTAF報)

利用可能な観測所は地図上に黄色い丸と赤い丸で示す。

丸の上にカーソルを重ねると観測所名を参照できる。

次にクリックすると気象観測と天気予報を参照できる。

マップの切り替え:黒色「×」印の緑ボタンをクリックして拡大、「-」印の緑ボタンをクリックして縮小、緑色の三角印をクリックして隣りの地図に切り替え


METAR-TAF: